Time;durP1;ratioP1;P1;durP2;ratioP2;P2;SDS_P1;SDS_P2;PMS_P1;PMS_P2;Temp;Humidity;BMP_temperature;BMP_pressure;BME280_temperature;BME280_humidity;BME280_pressure;Samples;Min_cycle;Max_cycle;Signal;HPM_P1;HPM_P2
2022/07/08 00:01:19;;;;;;;2.80;1.70;;;17.40;81.70;;;;;;5052184;28;20219;-70
2022/07/08 00:03:45;;;;;;;2.40;1.83;;;17.50;81.90;;;;;;5050164;28;20223;-69
2022/07/08 00:06:11;;;;;;;2.77;1.90;;;17.50;81.70;;;;;;5051379;28;20242;-69
2022/07/08 00:08:36;;;;;;;2.63;1.93;;;17.40;82.10;;;;;;5037514;28;20303;-69
2022/07/08 00:11:02;;;;;;;3.10;2.10;;;17.40;82.20;;;;;;5048019;28;20216;-69
2022/07/08 00:13:28;;;;;;;3.20;2.20;;;17.40;82.20;;;;;;5051797;28;20227;-70
2022/07/08 00:15:54;;;;;;;3.93;3.30;;;17.30;82.20;;;;;;5057287;28;20489;-70
2022/07/08 00:18:20;;;;;;;3.13;1.83;;;17.40;82.50;;;;;;5035400;28;20236;-69
2022/07/08 00:20:46;;;;;;;3.40;2.60;;;17.40;83.00;;;;;;5028975;28;20274;-69
2022/07/08 00:23:11;;;;;;;7.27;2.47;;;17.40;83.00;;;;;;5052561;28;20216;-69
2022/07/08 00:25:37;;;;;;;4.90;1.80;;;17.40;83.20;;;;;;5034966;28;20222;-69
2022/07/08 00:28:03;;;;;;;3.60;2.30;;;17.30;83.30;;;;;;5055632;28;20219;-68
2022/07/08 00:30:28;;;;;;;2.87;2.07;;;17.20;83.90;;;;;;5047376;28;20630;-69
2022/07/08 00:32:54;;;;;;;5.57;2.40;;;17.20;83.80;;;;;;5032963;28;20442;-70
2022/07/08 00:35:20;;;;;;;6.17;2.03;;;17.10;83.80;;;;;;5048269;28;20307;-68
2022/07/08 00:37:45;;;;;;;3.30;1.67;;;17.10;84.10;;;;;;5046201;28;20220;-69
2022/07/08 00:40:12;;;;;;;4.40;1.77;;;17.10;84.40;;;;;;5047926;28;20249;-68
2022/07/08 00:42:37;;;;;;;1.93;1.83;;;17.10;85.50;;;;;;5060028;28;20224;-69
2022/07/08 00:45:03;;;;;;;4.20;1.90;;;17.00;84.40;;;;;;5047517;28;20809;-69
2022/07/08 00:47:29;;;;;;;2.50;1.67;;;17.10;84.50;;;;;;5058137;28;20216;-69
2022/07/08 00:49:55;;;;;;;3.83;2.40;;;17.10;84.60;;;;;;5034623;28;20963;-70
2022/07/08 00:52:21;;;;;;;3.50;1.80;;;17.10;84.30;;;;;;5046999;28;20216;-69
2022/07/08 00:54:48;;;;;;;3.80;2.70;;;17.10;84.10;;;;;;5056423;28;20759;-70
2022/07/08 00:57:14;;;;;;;2.37;1.70;;;17.10;84.00;;;;;;5033241;28;20459;-69
2022/07/08 00:59:41;;;;;;;2.80;1.70;;;17.10;84.10;;;;;;5050816;28;20458;-70
2022/07/08 01:02:07;;;;;;;5.80;2.03;;;17.10;83.90;;;;;;5050700;28;20462;-69
2022/07/08 01:04:35;;;;;;;2.67;2.07;;;17.10;83.90;;;;;;5047084;28;20458;-69
2022/07/08 01:07:00;;;;;;;3.43;1.87;;;17.10;83.80;;;;;;5053826;28;20216;-69
2022/07/08 01:09:26;;;;;;;2.10;1.63;;;17.10;83.80;;;;;;5043678;28;20450;-69
2022/07/08 01:11:52;;;;;;;3.53;1.83;;;17.20;83.90;;;;;;5051303;28;20215;-69
2022/07/08 01:14:18;;;;;;;6.40;2.00;;;17.20;83.80;;;;;;5050602;28;20753;-70
2022/07/08 01:16:44;;;;;;;6.17;1.83;;;17.20;83.90;;;;;;5049177;28;20238;-69
2022/07/08 01:19:09;;;;;;;6.80;2.17;;;17.20;83.90;;;;;;5046372;28;20676;-68
2022/07/08 01:21:35;;;;;;;4.00;2.20;;;17.20;83.80;;;;;;5053589;28;20703;-70
2022/07/08 01:24:01;;;;;;;2.27;1.57;;;17.10;84.00;;;;;;5028810;28;20312;-69
2022/07/08 01:26:27;;;;;;;7.20;1.87;;;17.10;83.90;;;;;;5057625;28;20455;-69
2022/07/08 01:28:54;;;;;;;2.80;1.70;;;17.10;84.00;;;;;;5028808;28;20216;-69
2022/07/08 01:31:20;;;;;;;5.63;2.20;;;17.00;83.60;;;;;;5033245;28;20447;-69
2022/07/08 01:33:45;;;;;;;2.50;1.97;;;17.00;83.80;;;;;;5030402;28;20538;-69
2022/07/08 01:36:11;;;;;;;1.73;1.63;;;17.00;84.00;;;;;;5030345;28;20208;-68
2022/07/08 01:38:37;;;;;;;4.60;2.20;;;17.00;84.40;;;;;;5029424;28;20270;-71
2022/07/08 01:41:03;;;;;;;5.70;2.00;;;17.00;84.30;;;;;;5051204;28;20219;-69
2022/07/08 01:43:28;;;;;;;1.67;1.57;;;17.00;84.50;;;;;;5048846;28;20228;-69
2022/07/08 01:45:54;;;;;;;2.50;1.77;;;16.90;84.40;;;;;;5054330;28;20455;-70
2022/07/08 01:48:20;;;;;;;1.97;1.80;;;16.80;84.90;;;;;;5047585;28;20237;-70
2022/07/08 01:50:46;;;;;;;3.73;2.10;;;16.80;84.80;;;;;;5046504;28;20603;-69
2022/07/08 01:53:12;;;;;;;2.77;1.87;;;16.80;84.90;;;;;;5043454;28;20208;-69
2022/07/08 01:55:38;;;;;;;1.97;1.77;;;16.70;84.70;;;;;;5052849;28;20215;-70
2022/07/08 01:58:04;;;;;;;2.33;2.03;;;16.60;84.90;;;;;;5048278;28;20534;-69
2022/07/08 02:00:29;;;;;;;1.90;1.70;;;16.60;84.90;;;;;;5050328;28;20219;-69
2022/07/08 02:02:55;;;;;;;2.37;1.73;;;16.60;84.90;;;;;;5031668;28;20215;-69
2022/07/08 02:05:21;;;;;;;2.97;1.70;;;16.60;84.90;;;;;;5047654;28;20278;-69
2022/07/08 02:07:46;;;;;;;3.70;1.73;;;16.50;85.50;;;;;;5050410;28;20208;-69
2022/07/08 02:10:12;;;;;;;3.90;1.70;;;16.50;84.60;;;;;;5049143;28;20211;-69
2022/07/08 02:12:38;;;;;;;2.43;1.80;;;16.50;84.90;;;;;;5050658;28;20219;-69
2022/07/08 02:15:06;;;;;;;3.83;1.93;;;16.50;84.80;;;;;;5037930;28;20228;-69
2022/07/08 02:17:36;;;;;;;4.53;1.70;;;16.50;84.60;;;;;;5048984;28;20454;-69
2022/07/08 02:20:11;;;;;;;1.60;1.50;;;16.50;84.40;;;;;;5045981;28;20969;-69
2022/07/08 02:22:37;;;;;;;10.17;1.93;;;16.50;84.00;;;;;;5029226;28;21016;-69
2022/07/08 02:25:03;;;;;;;3.73;1.80;;;16.50;83.60;;;;;;5043163;28;20529;-68
2022/07/08 02:27:29;;;;;;;2.20;2.00;;;16.50;83.50;;;;;;5031918;28;20461;-69
2022/07/08 02:29:55;;;;;;;3.33;1.80;;;16.50;83.80;;;;;;5046680;28;20550;-69
2022/07/08 02:32:21;;;;;;;2.20;1.40;;;16.40;83.90;;;;;;5050909;28;20230;-69
2022/07/08 02:34:46;;;;;;;6.10;1.90;;;16.50;84.00;;;;;;5049037;28;20228;-69
2022/07/08 02:37:13;;;;;;;4.50;1.70;;;16.50;83.90;;;;;;5055079;28;20211;-69
2022/07/08 02:39:39;;;;;;;2.10;1.47;;;16.50;83.50;;;;;;5034043;28;20220;-69
2022/07/08 02:42:05;;;;;;;2.63;1.90;;;16.40;83.30;;;;;;5048032;28;20523;-69
2022/07/08 02:44:31;;;;;;;3.00;1.50;;;16.40;83.60;;;;;;5045616;28;20470;-69
2022/07/08 02:46:57;;;;;;;4.63;2.10;;;16.30;83.30;;;;;;5050046;28;20470;-69
2022/07/08 02:49:22;;;;;;;2.53;1.93;;;16.30;83.50;;;;;;5060147;28;20221;-68
2022/07/08 02:51:48;;;;;;;4.70;1.50;;;16.20;83.60;;;;;;5050272;28;20675;-69
2022/07/08 02:54:14;;;;;;;2.83;1.77;;;16.30;83.70;;;;;;5048144;28;20223;-70
2022/07/08 02:56:40;;;;;;;1.30;1.30;;;16.30;83.60;;;;;;5054814;28;20219;-69
2022/07/08 02:59:06;;;;;;;3.87;1.37;;;16.30;83.50;;;;;;5040605;28;20474;-69
2022/07/08 03:01:32;;;;;;;2.50;2.07;;;16.30;83.40;;;;;;5049597;28;20285;-69
2022/07/08 03:03:58;;;;;;;4.33;2.20;;;16.30;83.10;;;;;;5041113;28;20307;-69
2022/07/08 03:06:24;;;;;;;1.37;1.27;;;16.30;83.20;;;;;;5045703;28;21029;-69
2022/07/08 03:08:49;;;;;;;4.97;1.83;;;16.10;83.00;;;;;;5050613;28;20294;-69
2022/07/08 03:11:15;;;;;;;3.50;1.37;;;16.20;83.30;;;;;;5056031;28;20256;-70
2022/07/08 03:13:41;;;;;;;2.43;1.50;;;16.20;83.20;;;;;;5057316;28;20235;-69
2022/07/08 03:16:07;;;;;;;4.13;1.93;;;16.20;83.20;;;;;;5051703;28;20219;-69
2022/07/08 03:18:34;;;;;;;2.60;1.43;;;16.20;83.00;;;;;;5068256;28;20254;-69
2022/07/08 03:20:59;;;;;;;1.47;1.37;;;16.00;82.80;;;;;;5069934;28;20457;-69
2022/07/08 03:23:25;;;;;;;6.60;1.70;;;15.80;83.10;;;;;;5052734;28;20989;-69
2022/07/08 03:25:51;;;;;;;3.73;1.90;;;15.80;83.30;;;;;;5039401;28;20636;-68
2022/07/08 03:28:16;;;;;;;1.90;1.50;;;15.70;83.70;;;;;;5052574;28;20247;-69
2022/07/08 03:30:42;;;;;;;1.77;1.53;;;15.70;83.90;;;;;;5035298;28;20219;-70
2022/07/08 03:33:08;;;;;;;1.77;1.67;;;15.60;83.90;;;;;;5049973;28;20716;-70
2022/07/08 03:35:33;;;;;;;1.47;1.30;;;15.70;83.90;;;;;;5047917;28;20277;-69
2022/07/08 03:37:59;;;;;;;3.30;2.13;;;15.80;83.60;;;;;;5058097;28;20215;-69
2022/07/08 03:43:09;;;;;;;1.60;1.40;;;15.80;83.30;;;;;;5055192;28;20227;-69
2022/07/08 03:45:35;;;;;;;3.40;1.53;;;15.80;83.40;;;;;;5047490;28;20458;-69
2022/07/08 03:48:02;;;;;;;4.50;1.60;;;15.70;83.60;;;;;;5032896;28;20306;-69
2022/07/08 03:50:28;;;;;;;4.10;1.80;;;15.70;84.00;;;;;;5054797;28;20215;-70
2022/07/08 03:52:54;;;;;;;2.30;1.73;;;15.70;83.80;;;;;;5048497;28;20463;-69
2022/07/08 03:55:24;;;;;;;3.60;1.47;;;15.70;83.80;;;;;;5055286;28;20556;-69
2022/07/08 03:57:51;;;;;;;5.53;1.83;;;15.70;83.90;;;;;;5027720;28;20278;-69
2022/07/08 04:00:19;;;;;;;2.87;1.87;;;15.70;83.80;;;;;;5047902;28;20481;-70
2022/07/08 04:02:45;;;;;;;2.80;1.87;;;15.70;83.90;;;;;;5052457;28;20469;-70
2022/07/08 04:05:12;;;;;;;5.37;1.90;;;15.60;84.40;;;;;;5049829;28;20470;-69
2022/07/08 04:07:38;;;;;;;3.27;2.10;;;15.60;84.10;;;;;;5054414;28;20453;-69
2022/07/08 04:10:04;;;;;;;2.50;2.00;;;15.70;84.10;;;;;;5050867;28;20592;-69
2022/07/08 04:12:30;;;;;;;3.17;2.07;;;15.60;85.20;;;;;;5036000;28;20451;-69
2022/07/08 04:14:56;;;;;;;3.50;2.60;;;15.60;85.20;;;;;;5055805;28;20462;-69
2022/07/08 04:17:21;;;;;;;5.50;1.80;;;15.50;85.10;;;;;;5037948;28;20358;-69
2022/07/08 04:19:47;;;;;;;2.87;1.80;;;15.60;85.70;;;;;;5048453;28;20242;-70
2022/07/08 04:22:13;;;;;;;4.07;2.03;;;15.50;86.80;;;;;;5044940;28;20243;-69
2022/07/08 04:24:38;;;;;;;4.03;2.37;;;15.50;86.30;;;;;;5051205;28;20223;-69
2022/07/08 04:27:04;;;;;;;2.27;2.07;;;15.60;86.30;;;;;;5039864;28;20216;-69
2022/07/08 04:29:30;;;;;;;1.70;1.60;;;15.60;86.30;;;;;;5047798;28;20223;-69
2022/07/08 04:31:56;;;;;;;2.90;2.03;;;15.60;87.50;;;;;;5038654;28;20219;-68
2022/07/08 04:34:21;;;;;;;3.17;1.77;;;15.60;87.40;;;;;;5047264;28;20228;-69
2022/07/08 04:36:47;;;;;;;3.77;2.03;;;15.70;86.50;;;;;;5071786;28;20221;-69
2022/07/08 04:39:12;;;;;;;5.33;1.90;;;15.70;87.40;;;;;;5047791;28;20232;-70
2022/07/08 04:41:38;;;;;;;1.70;1.60;;;15.70;86.70;;;;;;5050629;28;20226;-69
2022/07/08 04:44:04;;;;;;;3.00;1.83;;;15.70;87.50;;;;;;5045980;28;20645;-70
2022/07/08 04:46:30;;;;;;;3.37;2.00;;;15.80;87.20;;;;;;5048806;28;20239;-69
2022/07/08 04:48:56;;;;;;;3.50;1.53;;;15.80;87.40;;;;;;5053768;28;20493;-69
2022/07/08 04:51:22;;;;;;;3.00;2.70;;;15.80;87.40;;;;;;5049011;28;20258;-69
2022/07/08 04:53:48;;;;;;;3.90;1.90;;;15.80;87.70;;;;;;5047427;28;20223;-68
2022/07/08 04:56:14;;;;;;;1.77;1.67;;;15.80;87.90;;;;;;5055024;28;20466;-68
2022/07/08 04:58:39;;;;;;;2.30;2.20;;;15.80;87.50;;;;;;5036083;28;20298;-68
2022/07/08 05:01:05;;;;;;;2.67;1.97;;;15.80;87.60;;;;;;5046378;28;20208;-69
2022/07/08 05:03:31;;;;;;;1.90;1.50;;;15.80;88.20;;;;;;5048541;28;20224;-70
2022/07/08 05:05:56;;;;;;;3.10;2.00;;;15.80;89.00;;;;;;5049112;28;20215;-69
2022/07/08 05:08:22;;;;;;;4.10;1.70;;;15.90;90.00;;;;;;5041846;28;20204;-69
2022/07/08 05:10:48;;;;;;;2.70;1.60;;;15.90;89.10;;;;;;5029626;28;20224;-69
2022/07/08 05:13:14;;;;;;;3.60;1.93;;;15.90;89.40;;;;;;5029394;28;20219;-69
2022/07/08 05:15:40;;;;;;;1.53;1.40;;;16.00;90.10;;;;;;5032865;28;20227;-69
2022/07/08 05:18:05;;;;;;;1.50;1.40;;;16.00;90.00;;;;;;5049583;28;20534;-68
2022/07/08 05:20:32;;;;;;;9.03;2.27;;;16.00;90.30;;;;;;5050088;28;20224;-69
2022/07/08 05:22:57;;;;;;;2.60;1.90;;;16.10;90.20;;;;;;5033400;28;20277;-68
2022/07/08 05:25:24;;;;;;;2.77;1.80;;;16.10;90.50;;;;;;5031508;28;20443;-69
2022/07/08 05:27:50;;;;;;;2.70;2.50;;;16.10;90.40;;;;;;5009451;28;20255;-70
2022/07/08 05:30:16;;;;;;;4.07;2.70;;;16.20;90.70;;;;;;5013832;28;20515;-69
2022/07/08 05:32:41;;;;;;;2.10;1.80;;;16.20;90.60;;;;;;5049329;28;21001;-70
2022/07/08 05:35:08;;;;;;;3.50;2.90;;;16.20;90.60;;;;;;5041782;28;20699;-70
2022/07/08 05:37:37;;;;;;;3.63;1.50;;;16.30;90.50;;;;;;5047598;28;20231;-70
2022/07/08 05:40:07;;;;;;;3.63;2.20;;;16.30;90.60;;;;;;5036128;28;20480;-71
2022/07/08 05:42:33;;;;;;;2.13;1.60;;;16.30;90.50;;;;;;5046999;28;21024;-70
2022/07/08 05:44:59;;;;;;;2.43;2.23;;;16.40;90.50;;;;;;5059429;28;20454;-70
2022/07/08 05:47:24;;;;;;;3.87;2.10;;;16.40;90.50;;;;;;5047836;28;20281;-69
2022/07/08 05:49:50;;;;;;;5.50;2.67;;;16.40;90.60;;;;;;5043867;28;20239;-70
2022/07/08 05:52:16;;;;;;;2.90;1.70;;;16.50;90.50;;;;;;5040093;28;20310;-70
2022/07/08 05:54:45;;;;;;;5.43;1.57;;;16.50;90.50;;;;;;5025329;28;20216;-70
2022/07/08 05:57:12;;;;;;;6.13;1.67;;;16.50;89.70;;;;;;5042269;28;20218;-69
2022/07/08 05:59:37;;;;;;;5.13;1.97;;;16.50;89.90;;;;;;5047500;28;20466;-69
2022/07/08 06:02:04;;;;;;;1.73;1.60;;;16.60;90.00;;;;;;5043862;28;20530;-70
2022/07/08 06:04:29;;;;;;;2.30;1.83;;;16.60;90.10;;;;;;5030064;28;20243;-70
2022/07/08 06:06:56;;;;;;;2.20;1.80;;;16.70;90.10;;;;;;5040732;28;20478;-69
2022/07/08 06:09:22;;;;;;;3.50;1.60;;;16.80;90.20;;;;;;5039456;28;20246;-69
2022/07/08 06:11:47;;;;;;;3.23;1.60;;;16.90;90.30;;;;;;5041286;28;20463;-69
2022/07/08 06:14:13;;;;;;;2.67;1.80;;;16.90;90.00;;;;;;5045279;28;20235;-68
2022/07/08 06:16:39;;;;;;;4.33;1.43;;;16.90;90.20;;;;;;5048157;28;20765;-69
2022/07/08 06:19:05;;;;;;;5.57;1.63;;;17.00;90.10;;;;;;5038062;28;20298;-69
2022/07/08 06:21:30;;;;;;;5.17;1.80;;;17.10;90.10;;;;;;5037442;28;20604;-70
2022/07/08 06:23:56;;;;;;;3.30;1.90;;;17.10;90.10;;;;;;5038836;28;20268;-69
2022/07/08 06:26:22;;;;;;;1.53;1.43;;;17.10;90.00;;;;;;5023223;28;20228;-69
2022/07/08 06:28:48;;;;;;;2.70;1.60;;;17.20;90.30;;;;;;5058251;28;20285;-69
2022/07/08 06:31:13;;;;;;;3.33;1.83;;;17.20;90.30;;;;;;5036484;28;20448;-69
2022/07/08 06:33:39;;;;;;;1.90;1.63;;;17.20;90.10;;;;;;5039520;28;20697;-70
2022/07/08 06:36:05;;;;;;;2.47;1.63;;;17.20;89.90;;;;;;5040825;28;20700;-70
2022/07/08 06:38:31;;;;;;;1.67;1.57;;;17.30;89.80;;;;;;5039815;28;20223;-69
2022/07/08 06:40:56;;;;;;;2.00;1.50;;;17.30;90.00;;;;;;5041932;28;20508;-70
2022/07/08 06:43:22;;;;;;;6.80;1.87;;;17.20;88.50;;;;;;5043883;28;20212;-71
2022/07/08 06:45:49;;;;;;;2.20;1.47;;;17.20;87.90;;;;;;5024717;28;20216;-70
2022/07/08 06:48:15;;;;;;;3.20;1.70;;;17.20;88.60;;;;;;5043849;28;20459;-70
2022/07/08 06:50:41;;;;;;;5.23;1.80;;;17.30;88.20;;;;;;5031542;28;20251;-69
2022/07/08 06:53:07;;;;;;;2.17;1.80;;;17.30;88.00;;;;;;5038617;28;20218;-70
2022/07/08 06:55:33;;;;;;;2.13;1.47;;;17.40;87.40;;;;;;5045587;28;20709;-69
2022/07/08 06:57:58;;;;;;;2.20;1.63;;;17.30;86.20;;;;;;5043638;28;20213;-69
2022/07/08 07:00:24;;;;;;;2.20;1.70;;;17.40;86.90;;;;;;5040403;28;20626;-69
2022/07/08 07:02:50;;;;;;;4.70;1.93;;;17.40;85.90;;;;;;5040928;28;20286;-70
2022/07/08 07:05:18;;;;;;;2.10;1.83;;;17.40;85.50;;;;;;5040345;28;20481;-70
2022/07/08 07:07:44;;;;;;;3.13;1.80;;;17.40;85.30;;;;;;5044954;28;20443;-68
2022/07/08 07:10:10;;;;;;;2.00;1.63;;;17.50;85.80;;;;;;5041085;28;20823;-69
2022/07/08 07:12:36;;;;;;;2.07;1.90;;;17.40;85.50;;;;;;5044844;28;20235;-70
2022/07/08 07:15:01;;;;;;;3.17;1.50;;;17.60;85.80;;;;;;5055868;28;20231;-70
2022/07/08 07:17:27;;;;;;;3.20;2.30;;;17.60;85.00;;;;;;5029622;28;20228;-69
2022/07/08 07:19:53;;;;;;;1.60;1.50;;;17.60;85.10;;;;;;5048060;28;20227;-70
2022/07/08 07:22:19;;;;;;;5.50;2.13;;;17.60;84.70;;;;;;5033569;28;20224;-70
2022/07/08 07:24:44;;;;;;;1.97;1.77;;;17.70;84.70;;;;;;5041500;28;20216;-69
2022/07/08 07:27:10;;;;;;;2.30;1.50;;;17.70;84.20;;;;;;5055906;28;20571;-70
2022/07/08 07:29:36;;;;;;;1.67;1.50;;;17.60;83.60;;;;;;5041355;28;20220;-69
2022/07/08 07:32:01;;;;;;;3.50;1.70;;;17.70;84.10;;;;;;5037543;28;20216;-68
2022/07/08 07:34:27;;;;;;;2.60;1.70;;;17.70;84.10;;;;;;5040928;28;20225;-70
2022/07/08 07:36:53;;;;;;;1.80;1.70;;;17.80;84.10;;;;;;5047204;28;20216;-69
2022/07/08 07:39:18;;;;;;;1.80;1.70;;;17.80;84.60;;;;;;5043929;28;20692;-70
2022/07/08 07:41:44;;;;;;;3.53;1.97;;;17.90;84.40;;;;;;5040781;28;20307;-70
2022/07/08 07:44:10;;;;;;;1.77;1.60;;;17.90;83.70;;;;;;5032329;28;20566;-70
2022/07/08 07:46:36;;;;;;;2.93;2.10;;;17.90;83.80;;;;;;5047083;28;20302;-68
2022/07/08 07:49:02;;;;;;;2.67;2.33;;;17.90;83.40;;;;;;5043652;28;20274;-68
2022/07/08 07:51:28;;;;;;;4.30;2.23;;;17.90;83.00;;;;;;5043364;28;20220;-70
2022/07/08 07:53:54;;;;;;;2.03;1.93;;;17.90;82.60;;;;;;5039023;28;21103;-69
2022/07/08 07:56:20;;;;;;;2.27;1.97;;;17.90;82.80;;;;;;5041276;28;20225;-70
2022/07/08 07:58:46;;;;;;;1.83;1.70;;;17.90;83.30;;;;;;5045615;28;20505;-70
2022/07/08 08:01:11;;;;;;;2.43;2.23;;;18.00;83.00;;;;;;5039627;28;20708;-71
2022/07/08 08:03:37;;;;;;;4.60;2.40;;;18.00;83.10;;;;;;5042338;28;20300;-69
2022/07/08 08:06:04;;;;;;;3.17;2.20;;;18.10;83.40;;;;;;5047744;28;20281;-69
2022/07/08 08:08:31;;;;;;;3.70;2.20;;;18.00;82.80;;;;;;5048060;28;20273;-69
2022/07/08 08:10:58;;;;;;;2.73;2.10;;;18.10;83.20;;;;;;5048321;28;20463;-68
2022/07/08 08:13:24;;;;;;;2.33;2.10;;;18.10;82.50;;;;;;5049439;28;20489;-69
2022/07/08 08:15:49;;;;;;;4.13;2.37;;;18.10;83.00;;;;;;5045980;28;20538;-69
2022/07/08 08:18:15;;;;;;;3.90;2.10;;;18.20;82.40;;;;;;5036298;28;20630;-69
2022/07/08 08:20:42;;;;;;;2.20;2.10;;;18.20;82.80;;;;;;5028949;28;20281;-68
2022/07/08 08:23:08;;;;;;;2.17;2.07;;;18.30;82.30;;;;;;5046405;28;20475;-70
2022/07/08 08:25:34;;;;;;;6.53;2.20;;;18.30;82.10;;;;;;5040829;28;20597;-69
2022/07/08 08:28:04;;;;;;;2.30;2.10;;;18.30;82.50;;;;;;5044023;28;20451;-70
2022/07/08 08:30:29;;;;;;;2.43;2.23;;;18.40;82.50;;;;;;5029463;28;20451;-70
2022/07/08 08:32:55;;;;;;;2.63;2.27;;;18.50;83.00;;;;;;5042597;28;20506;-70
2022/07/08 08:35:21;;;;;;;2.50;2.30;;;18.70;82.10;;;;;;5044200;28;20734;-70
2022/07/08 08:37:47;;;;;;;3.00;2.27;;;18.70;81.40;;;;;;5047870;28;20662;-69
2022/07/08 08:40:13;;;;;;;3.00;2.07;;;18.70;82.30;;;;;;5046630;28;20208;-70
2022/07/08 08:42:41;;;;;;;2.73;2.10;;;18.80;81.60;;;;;;5045437;28;20285;-69
2022/07/08 08:45:07;;;;;;;2.93;2.37;;;18.80;81.50;;;;;;5044781;28;20491;-70
2022/07/08 08:47:34;;;;;;;2.10;1.90;;;18.80;80.70;;;;;;5043512;28;20445;-69
2022/07/08 08:50:53;;;;;;;5.30;2.20;;;18.80;81.20;;;;;;5045603;28;20454;-70
2022/07/08 08:52:49;;;;;;;2.00;1.90;;;18.90;81.20;;;;;;5044812;28;20463;-70
2022/07/08 08:55:28;;;;;;;4.73;2.70;;;18.90;80.80;;;;;;5040962;28;20455;-69
2022/07/08 08:57:57;;;;;;;2.40;2.17;;;19.00;81.60;;;;;;5045713;28;20501;-70
2022/07/08 09:00:23;;;;;;;3.00;2.43;;;19.10;80.80;;;;;;5026900;28;20450;-69
2022/07/08 09:02:49;;;;;;;3.60;2.33;;;19.10;80.60;;;;;;5040967;28;20477;-69
2022/07/08 09:05:15;;;;;;;2.50;2.10;;;19.20;80.90;;;;;;5045004;28;20466;-69
2022/07/08 09:07:42;;;;;;;3.77;2.37;;;19.30;80.60;;;;;;5046437;28;20223;-70
2022/07/08 09:10:09;;;;;;;3.70;2.17;;;19.30;79.90;;;;;;5040631;28;20456;-69
2022/07/08 09:12:35;;;;;;;1.97;1.87;;;19.40;80.50;;;;;;5041788;28;20941;-70
2022/07/08 09:15:01;;;;;;;3.73;2.20;;;19.60;79.60;;;;;;5045600;28;20500;-69
2022/07/08 09:17:27;;;;;;;2.50;2.30;;;19.60;79.70;;;;;;5041704;28;20350;-69
2022/07/08 09:19:53;;;;;;;4.60;2.20;;;19.70;80.00;;;;;;5042977;28;20558;-69
2022/07/08 09:22:22;;;;;;;2.93;2.73;;;19.80;80.40;;;;;;5035742;28;20232;-69
2022/07/08 09:24:48;;;;;;;6.70;4.10;;;20.00;80.30;;;;;;5039691;28;20636;-70
2022/07/08 09:27:15;;;;;;;3.27;2.77;;;19.90;77.50;;;;;;5047464;28;20488;-69
2022/07/08 09:29:59;;;;;;;2.93;2.50;;;19.80;78.00;;;;;;5047253;28;20228;-70
2022/07/08 09:32:25;;;;;;;2.70;2.50;;;19.70;77.00;;;;;;5046543;28;20462;-70
2022/07/08 09:34:51;;;;;;;2.10;2.00;;;19.70;77.00;;;;;;5045141;28;20454;-70
2022/07/08 09:37:18;;;;;;;3.77;2.07;;;19.70;77.10;;;;;;5044146;28;20216;-70
2022/07/08 09:39:45;;;;;;;2.67;2.43;;;19.70;77.60;;;;;;5030227;28;20504;-69
2022/07/08 09:42:14;;;;;;;2.40;1.90;;;19.90;77.30;;;;;;5023680;28;21098;-69
2022/07/08 09:44:41;;;;;;;2.30;2.10;;;20.00;77.10;;;;;;5028806;28;20474;-70
2022/07/08 09:47:14;;;;;;;4.50;2.50;;;20.10;76.90;;;;;;5022000;28;20506;-70
2022/07/08 09:49:45;;;;;;;2.37;2.27;;;20.10;76.90;;;;;;5056628;28;20478;-69
2022/07/08 09:52:20;;;;;;;3.83;1.77;;;20.20;77.10;;;;;;5031219;28;20451;-69
2022/07/08 09:54:45;;;;;;;2.27;2.07;;;20.30;76.80;;;;;;5039232;28;20452;-69
2022/07/08 09:57:13;;;;;;;3.47;2.47;;;20.30;77.60;;;;;;5032967;28;20446;-70
2022/07/08 09:59:39;;;;;;;2.80;2.23;;;20.50;77.60;;;;;;5044224;28;20659;-70
2022/07/08 10:02:05;;;;;;;3.57;2.30;;;20.70;77.40;;;;;;5050149;28;20503;-69
2022/07/08 10:04:31;;;;;;;2.00;1.80;;;20.70;75.40;;;;;;5044456;28;20219;-69
2022/07/08 10:06:58;;;;;;;2.43;2.20;;;20.60;75.70;;;;;;5045274;28;20450;-69
2022/07/08 10:09:25;;;;;;;5.23;1.97;;;20.60;76.60;;;;;;5041364;28;20465;-70
2022/07/08 10:11:51;;;;;;;2.20;2.00;;;20.80;77.00;;;;;;5032669;28;20498;-69
2022/07/08 10:14:18;;;;;;;8.70;2.63;;;21.00;76.60;;;;;;5044094;28;20973;-69
2022/07/08 10:16:47;;;;;;;4.47;2.77;;;21.10;75.20;;;;;;5045792;28;20447;-70
2022/07/08 10:19:30;;;;;;;3.93;2.20;;;21.00;74.10;;;;;;5044559;28;20457;-70
2022/07/08 10:21:58;;;;;;;2.80;2.30;;;21.00;74.80;;;;;;5059503;28;20466;-70
2022/07/08 10:24:27;;;;;;;1.60;1.50;;;21.00;75.10;;;;;;5040076;28;20463;-69
2022/07/08 10:26:57;;;;;;;2.87;2.03;;;21.10;74.70;;;;;;5039538;28;20951;-70
2022/07/08 10:29:33;;;;;;;2.90;1.90;;;21.30;75.40;;;;;;5050101;28;20451;-69
2022/07/08 10:32:00;;;;;;;2.30;2.10;;;21.40;75.80;;;;;;5028791;28;20525;-69
2022/07/08 10:34:33;;;;;;;2.47;2.23;;;21.50;74.90;;;;;;5038851;28;20450;-69
2022/07/08 10:37:02;;;;;;;2.40;1.80;;;21.70;76.10;;;;;;5038479;28;20455;-69
2022/07/08 10:39:47;;;;;;;3.13;1.67;;;21.90;75.70;;;;;;5038669;28;20442;-69
2022/07/08 10:42:12;;;;;;;2.40;1.90;;;22.00;75.70;;;;;;5055406;28;20470;-70
2022/07/08 10:44:44;;;;;;;2.97;2.00;;;22.10;75.50;;;;;;5046521;28;21127;-70
2022/07/08 10:47:13;;;;;;;4.23;2.33;;;22.20;75.30;;;;;;5042722;28;20553;-70
2022/07/08 10:49:43;;;;;;;2.30;2.10;;;22.20;74.10;;;;;;5058365;28;20450;-69
2022/07/08 10:52:08;;;;;;;3.73;2.20;;;22.00;73.10;;;;;;5037472;28;20477;-70
2022/07/08 10:54:38;;;;;;;2.03;1.87;;;21.80;71.90;;;;;;5039655;28;20990;-70
2022/07/08 10:57:22;;;;;;;3.27;2.20;;;21.80;72.30;;;;;;5043975;28;20244;-69
2022/07/08 11:00:05;;;;;;;2.53;1.73;;;22.10;73.90;;;;;;5043220;28;20477;-71
2022/07/08 11:02:31;;;;;;;3.03;2.10;;;22.40;74.50;;;;;;5028842;28;20992;-70
2022/07/08 11:04:57;;;;;;;2.13;1.97;;;22.60;73.40;;;;;;5039909;28;20454;-70
2022/07/08 11:07:28;;;;;;;2.10;2.00;;;22.80;73.70;;;;;;5038006;28;20644;-70
2022/07/08 11:10:11;;;;;;;2.17;1.97;;;22.80;72.20;;;;;;5041598;28;20635;-70
2022/07/08 11:12:43;;;;;;;4.13;2.00;;;22.90;73.00;;;;;;5033838;28;20445;-69
2022/07/08 11:15:16;;;;;;;2.13;1.83;;;23.00;73.20;;;;;;5039320;28;20502;-69
2022/07/08 11:17:43;;;;;;;3.70;2.60;;;23.00;71.60;;;;;;5038043;28;20464;-70
2022/07/08 11:20:10;;;;;;;3.90;2.40;;;22.90;71.40;;;;;;5033024;28;20502;-70
2022/07/08 11:22:39;;;;;;;2.23;1.93;;;22.90;71.00;;;;;;5039956;28;20462;-69
2022/07/08 11:25:07;;;;;;;1.80;1.70;;;22.90;70.50;;;;;;5040857;28;20461;-70
2022/07/08 11:27:35;;;;;;;2.03;1.93;;;22.80;70.00;;;;;;5061165;28;20563;-70
2022/07/08 11:30:04;;;;;;;2.23;2.03;;;22.70;69.10;;;;;;5026648;28;20454;-70
2022/07/08 11:32:30;;;;;;;4.57;2.00;;;22.70;69.20;;;;;;5032335;28;21041;-69
2022/07/08 11:34:57;;;;;;;2.40;2.20;;;22.80;70.80;;;;;;5034141;28;20462;-69
2022/07/08 11:37:23;;;;;;;2.37;1.70;;;23.10;70.50;;;;;;5047954;28;20461;-70
2022/07/08 11:39:49;;;;;;;2.43;1.93;;;23.30;70.90;;;;;;5042817;28;20464;-70
2022/07/08 11:42:16;;;;;;;2.53;2.30;;;23.50;71.10;;;;;;5039051;28;20501;-70
2022/07/08 11:44:45;;;;;;;3.63;2.17;;;23.60;70.40;;;;;;5046115;28;20891;-70
2022/07/08 11:47:19;;;;;;;2.10;2.00;;;23.80;71.70;;;;;;5048317;28;20904;-69
2022/07/08 11:49:47;;;;;;;2.30;2.20;;;24.00;71.50;;;;;;5050785;28;20510;-70
2022/07/08 11:52:16;;;;;;;2.57;2.37;;;24.30;70.90;;;;;;5029871;28;20453;-70
2022/07/08 11:54:47;;;;;;;4.80;2.00;;;24.50;69.80;;;;;;5048624;28;20478;-70
2022/07/08 11:57:14;;;;;;;3.63;2.40;;;24.60;70.00;;;;;;5038556;28;20457;-69
2022/07/08 11:59:39;;;;;;;2.60;2.00;;;24.50;69.00;;;;;;5043669;28;20478;-69
2022/07/08 12:02:06;;;;;;;4.37;2.23;;;24.50;69.30;;;;;;5045750;28;20492;-69
2022/07/08 12:04:32;;;;;;;2.90;2.40;;;24.60;69.40;;;;;;5046476;28;20235;-69
2022/07/08 12:07:01;;;;;;;3.50;2.60;;;24.70;69.30;;;;;;5054503;28;20452;-70
2022/07/08 12:09:29;;;;;;;2.93;2.63;;;24.50;67.10;;;;;;5041867;28;20449;-70
2022/07/08 12:11:57;;;;;;;3.20;2.60;;;24.60;69.00;;;;;;5046191;28;20469;-71
2022/07/08 12:14:24;;;;;;;5.13;2.53;;;24.80;69.10;;;;;;5049328;28;20468;-70
2022/07/08 12:16:50;;;;;;;3.43;2.40;;;25.00;69.60;;;;;;5044551;28;20507;-70
2022/07/08 12:19:34;;;;;;;3.27;2.97;;;25.20;69.10;;;;;;5032832;28;20458;-71
2022/07/08 12:22:01;;;;;;;3.50;2.80;;;25.20;67.30;;;;;;5036896;28;20485;-70
2022/07/08 12:24:35;;;;;;;7.73;3.40;;;24.80;66.20;;;;;;5052502;28;20503;-71
2022/07/08 12:27:04;;;;;;;2.50;2.30;;;24.70;67.80;;;;;;5050734;28;20968;-70
2022/07/08 12:29:36;;;;;;;3.87;2.50;;;24.90;68.30;;;;;;5034157;28;20438;-70
2022/07/08 12:32:11;;;;;;;4.33;3.00;;;25.10;68.50;;;;;;5048179;28;20462;-70
2022/07/08 12:34:48;;;;;;;4.27;2.80;;;25.30;68.00;;;;;;5051740;28;20460;-70
2022/07/08 12:37:16;;;;;;;6.10;3.43;;;25.40;67.80;;;;;;5033252;28;20537;-70
2022/07/08 12:39:42;;;;;;;3.40;2.60;;;25.50;67.00;;;;;;5050454;28;20442;-70
2022/07/08 12:42:08;;;;;;;3.90;3.20;;;25.50;67.00;;;;;;5044926;28;20465;-70
2022/07/08 12:44:34;;;;;;;3.03;2.73;;;25.60;65.70;;;;;;5049112;28;20465;-69
2022/07/08 12:47:01;;;;;;;3.60;3.30;;;25.60;66.10;;;;;;5050286;28;20210;-70
2022/07/08 12:49:29;;;;;;;4.13;3.03;;;25.80;66.60;;;;;;5037037;28;20269;-70